Time;durP1;ratioP1;P1;durP2;ratioP2;P2;SDS_P1;SDS_P2;PMS_P1;PMS_P2;Temp;Humidity;BMP_temperature;BMP_pressure;BME280_temperature;BME280_humidity;BME280_pressure;Samples;Min_cycle;Max_cycle;Signal;HPM_P1;HPM_P2
2022/01/27 00:04:49;;;;;;;23.57;13.83;;;;;;;2.09;97.23;100921.18;1670586;85;26226;-75
2022/01/27 00:07:06;;;;;;;26.50;13.85;;;;;;;2.06;97.26;100926.70;1668829;85;26294;-76
2022/01/27 00:10:04;;;;;;;25.70;14.65;;;;;;;2.03;97.22;100920.33;1670310;84;28430;-76
2022/01/27 00:12:18;;;;;;;20.88;12.13;;;;;;;1.99;97.10;100922.87;1666596;85;26490;-76
2022/01/27 00:14:46;;;;;;;21.25;12.90;;;;;;;1.95;97.17;100922.77;1670153;85;25893;-76
2022/01/27 00:17:13;;;;;;;21.00;13.10;;;;;;;1.94;97.26;100919.78;1670338;85;25778;-76
2022/01/27 00:19:37;;;;;;;22.93;13.45;;;;;;;1.92;97.27;100921.70;1669955;84;26545;-75
2022/01/27 00:22:04;;;;;;;22.85;13.88;;;;;;;1.91;97.44;100921.80;1670499;85;27527;-75
2022/01/27 00:24:31;;;;;;;21.80;12.98;;;;;;;1.91;97.72;100920.02;1670318;85;25952;-76
2022/01/27 00:26:59;;;;;;;20.48;13.50;;;;;;;1.91;97.75;100916.52;1670930;85;26245;-76
2022/01/27 00:29:26;;;;;;;24.85;14.10;;;;;;;1.93;97.76;100909.31;1670404;84;27092;-76
2022/01/27 00:31:52;;;;;;;23.50;14.03;;;;;;;1.94;97.80;100907.89;1670705;85;25831;-75
2022/01/27 00:34:19;;;;;;;22.17;14.18;;;;;;;1.94;97.83;100902.61;1670551;85;28293;-76
2022/01/27 00:36:45;;;;;;;22.55;12.70;;;;;;;1.97;97.93;100904.14;1670619;85;25996;-76
2022/01/27 00:39:11;;;;;;;26.50;14.13;;;;;;;1.96;97.97;100909.08;1670605;85;25962;-76
2022/01/27 00:41:37;;;;;;;26.73;14.23;;;;;;;1.96;98.02;100913.05;1670596;84;25843;-76
2022/01/27 00:44:05;;;;;;;27.90;16.10;;;;;;;1.95;98.05;100917.95;1670536;84;26400;-76
2022/01/27 00:46:32;;;;;;;27.77;14.90;;;;;;;1.94;98.06;100908.36;1670751;85;28292;-75
2022/01/27 00:48:59;;;;;;;26.05;14.25;;;;;;;1.92;98.19;100897.09;1670533;85;25797;-76
2022/01/27 00:51:30;;;;;;;27.17;14.00;;;;;;;1.93;98.19;100900.06;1669779;84;25866;-76
2022/01/27 00:54:04;;;;;;;26.00;14.50;;;;;;;1.93;98.24;100896.95;1670174;85;26616;-76
2022/01/27 00:56:33;;;;;;;35.68;17.40;;;;;;;1.91;98.29;100896.23;1668656;85;26422;-76
2022/01/27 00:59:58;;;;;;;36.42;17.60;;;;;;;1.91;98.39;100900.67;1669273;85;27464;-75
2022/01/27 01:01:36;;;;;;;29.98;15.45;;;;;;;1.91;98.42;100908.59;1666706;84;26470;-76
2022/01/27 01:04:01;;;;;;;33.65;16.10;;;;;;;1.92;98.55;100901.89;1669555;85;25745;-75
2022/01/27 01:06:37;;;;;;;33.83;18.12;;;;;;;1.93;98.66;100900.06;1670396;85;26124;-76
2022/01/27 01:14:37;;;;;;;39.38;18.35;;;;;;;1.91;98.85;100897.56;1670357;85;26038;-76
2022/01/27 01:17:05;;;;;;;39.88;17.73;;;;;;;1.90;98.78;100891.94;1668553;84;25802;-75
2022/01/27 01:19:42;;;;;;;35.30;17.42;;;;;;;1.91;98.90;100892.28;1668397;84;25844;-76
2022/01/27 01:29:25;;;;;;;39.40;17.85;;;;;;;1.93;99.05;100892.14;1667919;84;26200;-76
2022/01/27 01:32:52;;;;;;;46.98;19.90;;;;;;;1.91;99.37;100886.15;1670453;85;25759;-75
2022/01/27 01:35:17;;;;;;;38.30;19.50;;;;;;;1.90;99.29;100891.94;1670078;85;26468;-76
2022/01/27 01:37:44;;;;;;;47.27;20.92;;;;;;;1.92;99.45;100889.16;1670534;84;27458;-76
2022/01/27 01:40:16;;;;;;;37.75;16.60;;;;;;;1.90;99.59;100889.77;1670256;84;26471;-75
2022/01/27 01:42:43;;;;;;;33.55;17.60;;;;;;;1.89;99.66;100892.04;1670236;84;26416;-76
2022/01/27 01:45:17;;;;;;;42.78;18.02;;;;;;;1.89;99.64;100886.76;1670621;85;26473;-76
2022/01/27 01:47:45;;;;;;;34.75;15.38;;;;;;;1.90;99.63;100881.37;1670728;85;25586;-76
2022/01/27 01:50:12;;;;;;;46.37;20.92;;;;;;;1.90;99.68;100873.45;1669904;84;27634;-76
2022/01/27 01:52:40;;;;;;;43.25;19.48;;;;;;;1.91;99.60;100875.58;1670286;84;26230;-75
2022/01/27 01:55:09;;;;;;;51.05;22.67;;;;;;;1.91;99.64;100879.07;1670779;85;25852;-76
2022/01/27 01:57:36;;;;;;;44.27;18.20;;;;;;;1.93;99.62;100877.14;1670619;85;26377;-75
2022/01/27 02:00:07;;;;;;;40.23;19.30;;;;;;;1.95;99.58;100883.61;1670342;84;25967;-75
2022/01/27 02:02:36;;;;;;;40.28;16.48;;;;;;;1.96;99.61;100881.34;1670128;85;27642;-75
2022/01/27 02:05:03;;;;;;;46.53;18.50;;;;;;;1.95;99.70;100885.78;1670405;85;25794;-76
2022/01/27 02:10:15;;;;;;;44.15;20.95;;;;;;;1.96;99.77;100881.34;1670611;84;26334;-75
2022/01/27 02:18:07;;;;;;;45.63;19.82;;;;;;;1.99;99.76;100858.14;1670656;85;25837;-76
2022/01/27 02:20:33;;;;;;;51.50;21.48;;;;;;;2.01;99.69;100865.97;1670202;84;25858;-76
2022/01/27 02:23:00;;;;;;;43.15;19.70;;;;;;;2.01;99.60;100858.86;1670371;85;25787;-76
2022/01/27 02:25:26;;;;;;;55.28;21.33;;;;;;;2.03;99.68;100850.83;1670786;85;25958;-75
2022/01/27 02:27:55;;;;;;;50.48;20.60;;;;;;;2.01;99.59;100853.57;1670538;85;27465;-76
2022/01/27 02:30:22;;;;;;;47.70;21.20;;;;;;;2.02;99.66;100842.53;1670762;84;25752;-75
2022/01/27 02:32:52;;;;;;;50.90;21.40;;;;;;;2.03;99.62;100843.71;1670580;85;25314;-76
2022/01/27 02:35:24;;;;;;;36.20;17.40;;;;;;;2.03;99.64;100845.03;1670593;85;26588;-76
2022/01/27 02:37:51;;;;;;;47.05;18.37;;;;;;;2.03;99.80;100844.22;1669419;84;25357;-76
2022/01/27 02:40:34;;;;;;;41.70;21.05;;;;;;;2.01;99.80;100845.64;1670632;84;27992;-76
2022/01/27 02:43:05;;;;;;;43.58;20.23;;;;;;;2.01;99.72;100832.44;1670222;84;25874;-75
2022/01/27 02:45:47;;;;;;;;;;;;;;;2.02;99.72;100834.60;1673202;85;25831;-76
2022/01/27 02:48:13;;;;;;;45.17;21.57;;;;;;;2.03;99.78;100829.69;1670442;84;25813;-75
2022/01/27 02:50:39;;;;;;;47.73;19.48;;;;;;;2.02;99.88;100833.28;1670071;84;26486;-75
2022/01/27 02:53:09;;;;;;;54.38;23.52;;;;;;;2.02;99.88;100831.96;1670258;85;27444;-75
2022/01/27 02:55:35;;;;;;;56.92;22.32;;;;;;;2.01;100.00;100828.98;1670457;84;25757;-76
2022/01/27 02:58:02;;;;;;;51.13;23.65;;;;;;;1.99;99.96;100825.12;1670428;85;25818;-76
2022/01/27 03:00:28;;;;;;;51.80;21.50;;;;;;;1.99;100.00;100822.98;1670695;84;25897;-75
2022/01/27 03:02:54;;;;;;;47.70;20.50;;;;;;;2.00;100.00;100822.00;1669868;83;25387;-75
2022/01/27 03:05:21;;;;;;;47.90;20.82;;;;;;;2.00;100.00;100819.36;1670432;85;28224;-76
2022/01/27 03:07:48;;;;;;;51.73;21.07;;;;;;;1.99;100.00;100823.80;1670144;84;25781;-76
2022/01/27 03:10:17;;;;;;;52.60;20.90;;;;;;;1.99;100.00;100821.16;1670207;84;25861;-76
2022/01/27 03:12:45;;;;;;;49.03;21.27;;;;;;;1.97;100.00;100813.00;1670302;85;25857;-76
2022/01/27 03:15:11;;;;;;;46.42;18.55;;;;;;;1.97;100.00;100810.36;1670544;85;26646;-75
2022/01/27 03:17:39;;;;;;;57.88;21.35;;;;;;;1.98;100.00;100812.05;1670389;85;27435;-75
2022/01/27 03:20:09;;;;;;;60.17;22.02;;;;;;;1.99;100.00;100807.14;1670720;84;25911;-76
2022/01/27 03:22:35;;;;;;;47.73;21.52;;;;;;;1.99;100.00;100809.78;1670400;84;26405;-75
2022/01/27 03:25:03;;;;;;;56.85;23.10;;;;;;;1.98;100.00;100816.86;1670723;85;26509;-76
2022/01/27 03:27:29;;;;;;;48.55;19.07;;;;;;;1.99;100.00;100821.16;1671032;85;25866;-77
2022/01/27 03:29:56;;;;;;;53.25;23.70;;;;;;;2.00;100.00;100814.08;1670404;83;27624;-76
2022/01/27 03:32:25;;;;;;;44.25;16.20;;;;;;;1.99;100.00;100820.34;1670601;85;26648;-76
2022/01/27 03:34:50;;;;;;;44.90;20.43;;;;;;;2.00;100.00;100822.84;1670823;84;26517;-76
2022/01/27 03:37:16;;;;;;;51.70;20.32;;;;;;;1.99;100.00;100820.34;1670543;85;26637;-76
2022/01/27 03:39:43;;;;;;;46.70;18.20;;;;;;;2.00;100.00;100825.97;1670737;84;26543;-75
2022/01/27 03:42:10;;;;;;;50.30;18.62;;;;;;;2.01;100.00;100819.73;1670414;84;27460;-76
2022/01/27 03:44:36;;;;;;;49.15;20.00;;;;;;;2.01;100.00;100812.63;1670747;85;25751;-75
2022/01/27 03:47:03;;;;;;;50.92;20.92;;;;;;;2.03;100.00;100817.80;1670502;85;25775;-76
2022/01/27 03:49:29;;;;;;;55.08;20.40;;;;;;;2.03;100.00;100807.23;1670134;84;25836;-75
2022/01/27 03:51:59;;;;;;;48.60;19.30;;;;;;;2.03;100.00;100801.44;1670452;85;26183;-76
2022/01/27 03:54:24;;;;;;;40.45;16.62;;;;;;;2.07;100.00;100799.41;1670613;85;27490;-76
2022/01/27 03:56:50;;;;;;;42.73;17.45;;;;;;;2.08;100.00;100796.63;1670416;85;26361;-76
2022/01/27 03:59:16;;;;;;;43.00;18.77;;;;;;;2.08;100.00;100788.70;1670754;84;25871;-76
2022/01/27 04:01:42;;;;;;;36.48;15.85;;;;;;;2.09;99.98;100797.00;1670295;84;26540;-76
2022/01/27 04:04:09;;;;;;;39.27;18.20;;;;;;;2.08;99.92;100791.34;1670785;85;25860;-75
2022/01/27 04:06:39;;;;;;;36.73;16.93;;;;;;;2.09;99.91;100787.75;1670548;85;27485;-76
2022/01/27 04:09:08;;;;;;;44.73;20.12;;;;;;;2.09;100.00;100789.55;1670479;85;25819;-76
2022/01/27 04:11:38;;;;;;;44.25;17.65;;;;;;;2.09;99.90;100780.30;1670693;84;32458;-76
2022/01/27 04:14:04;;;;;;;40.60;17.20;;;;;;;2.10;99.87;100779.31;1670537;85;26348;-76
2022/01/27 04:16:30;;;;;;;46.58;19.77;;;;;;;2.11;99.84;100781.85;1670366;85;25949;-76
2022/01/27 04:18:56;;;;;;;44.55;19.50;;;;;;;2.10;99.80;100765.63;1670427;84;27464;-76
2022/01/27 04:21:22;;;;;;;37.20;16.10;;;;;;;2.11;99.69;100760.72;1670096;84;26462;-76
2022/01/27 04:23:50;;;;;;;42.45;18.25;;;;;;;2.14;99.74;100749.87;1670261;85;26454;-76
2022/01/27 04:26:21;;;;;;;37.35;16.93;;;;;;;2.14;99.57;100762.23;1670449;84;25842;-75
2022/01/27 04:28:48;;;;;;;36.58;15.55;;;;;;;2.13;99.62;100761.42;1670251;85;25795;-76
2022/01/27 04:31:13;;;;;;;35.75;17.23;;;;;;;2.14;99.63;100761.76;1670343;84;27492;-75
2022/01/27 04:33:40;;;;;;;44.73;18.82;;;;;;;2.14;99.54;100763.08;1670787;85;25973;-76
2022/01/27 04:36:16;;;;;;;35.20;16.27;;;;;;;2.15;99.57;100754.67;1670602;85;25872;-76
2022/01/27 04:38:43;;;;;;;39.05;16.37;;;;;;;2.17;99.51;100767.27;1668976;85;25830;-76
2022/01/27 04:43:43;;;;;;;42.83;16.17;;;;;;;2.15;99.65;100773.17;1670082;84;28322;-76
2022/01/27 04:46:15;;;;;;;46.18;18.32;;;;;;;2.14;99.67;100779.41;1669024;85;26370;-75
2022/01/27 04:48:40;;;;;;;43.38;17.57;;;;;;;2.15;99.72;100777.14;1668568;85;26576;-76
2022/01/27 04:51:10;;;;;;;44.33;16.85;;;;;;;2.13;99.71;100771.99;1669572;84;25789;-76
2022/01/27 04:53:43;;;;;;;37.13;15.35;;;;;;;2.14;99.71;100773.65;1671237;85;26407;-76
2022/01/27 04:56:07;;;;;;;41.93;16.70;;;;;;;2.13;99.79;100767.18;1670009;85;27518;-75
2022/01/27 04:58:34;;;;;;;44.38;17.50;;;;;;;2.13;99.83;100763.22;1670392;84;25793;-76
2022/01/27 05:01:03;;;;;;;44.98;17.77;;;;;;;2.13;99.88;100746.89;1670456;84;25879;-76
2022/01/27 05:03:39;;;;;;;42.80;17.20;;;;;;;2.12;99.96;100742.55;1670403;84;25793;-76
2022/01/27 05:06:01;;;;;;;38.75;17.32;;;;;;;2.13;100.00;100744.25;1669545;85;25479;-75
2022/01/27 05:08:27;;;;;;;47.70;18.98;;;;;;;2.13;100.00;100746.89;1670315;83;27633;-76
2022/01/27 05:10:58;;;;;;;40.48;15.68;;;;;;;2.13;100.00;100741.60;1670298;83;26272;-75
2022/01/27 05:13:24;;;;;;;51.37;18.98;;;;;;;2.11;100.00;100738.73;1670124;85;26451;-75
2022/01/27 05:15:50;;;;;;;46.10;18.02;;;;;;;2.10;100.00;100735.72;1670320;85;26690;-75
2022/01/27 05:18:16;;;;;;;48.70;18.62;;;;;;;2.10;100.00;100732.60;1670707;85;25776;-75
2022/01/27 05:20:44;;;;;;;49.63;18.25;;;;;;;2.09;100.00;100735.37;1670321;84;28224;-76
2022/01/27 05:23:11;;;;;;;53.78;21.42;;;;;;;2.09;100.00;100729.63;1669766;84;25428;-76
2022/01/27 05:25:38;;;;;;;50.00;19.25;;;;;;;2.08;100.00;100727.09;1670266;85;25726;-76
2022/01/27 05:28:06;;;;;;;51.77;19.23;;;;;;;2.04;100.00;100719.07;1670405;84;26560;-76
2022/01/27 05:30:33;;;;;;;55.98;20.82;;;;;;;2.04;100.00;100724.35;1670209;84;25991;-76
2022/01/27 05:33:00;;;;;;;59.27;24.37;;;;;;;2.02;100.00;100719.20;1670496;85;27442;-75
2022/01/27 05:35:26;;;;;;;55.12;21.75;;;;;;;2.03;100.00;100722.69;1670351;85;25714;-75
2022/01/27 05:37:53;;;;;;;52.62;20.85;;;;;;;2.03;100.00;100719.55;1670663;84;26528;-76
2022/01/27 05:40:20;;;;;;;58.60;23.32;;;;;;;2.03;100.00;100718.73;1670335;84;25829;-75
2022/01/27 05:42:46;;;;;;;54.23;21.73;;;;;;;2.03;100.00;100715.58;1670573;85;25302;-76
2022/01/27 05:45:13;;;;;;;53.75;21.00;;;;;;;2.04;100.00;100719.91;1670275;85;27478;-76
2022/01/27 05:47:39;;;;;;;51.77;19.90;;;;;;;2.05;100.00;100708.88;1670238;85;26376;-76
2022/01/27 05:50:06;;;;;;;61.53;22.62;;;;;;;2.06;100.00;100708.73;1669668;84;26501;-75
2022/01/27 05:52:32;;;;;;;57.95;22.80;;;;;;;2.07;100.00;100715.70;1670132;85;25802;-75
2022/01/27 05:54:59;;;;;;;56.98;21.90;;;;;;;2.10;100.00;100710.62;1670333;85;25754;-76
2022/01/27 05:57:25;;;;;;;61.50;22.65;;;;;;;2.09;100.00;100691.79;1670381;85;27480;-75
2022/01/27 05:59:51;;;;;;;56.00;23.32;;;;;;;2.09;100.00;100691.79;1670102;84;26446;-76
2022/01/27 06:02:17;;;;;;;62.50;24.02;;;;;;;2.08;100.00;100690.09;1670064;85;25743;-76
2022/01/27 06:04:43;;;;;;;56.10;23.20;;;;;;;2.08;100.00;100688.78;1670336;85;26310;-75
2022/01/27 06:07:11;;;;;;;57.20;22.27;;;;;;;2.08;100.00;100680.85;1670483;85;25807;-76
2022/01/27 06:09:37;;;;;;;55.08;21.55;;;;;;;2.08;100.00;100673.77;1670129;84;27716;-76
2022/01/27 06:12:04;;;;;;;57.58;25.50;;;;;;;2.07;100.00;100672.11;1670071;85;25909;-76
2022/01/27 06:14:30;;;;;;;60.92;24.75;;;;;;;2.06;100.00;100666.46;1670562;85;25896;-76
2022/01/27 06:16:56;;;;;;;55.58;22.80;;;;;;;2.06;100.00;100671.74;1670459;85;25783;-76
2022/01/27 06:19:26;;;;;;;49.93;21.12;;;;;;;2.05;100.00;100669.24;1670567;84;25872;-76
2022/01/27 06:21:50;;;;;;;46.68;20.82;;;;;;;2.04;100.00;100664.44;1669747;85;28101;-76
2022/01/27 06:24:17;;;;;;;58.75;24.55;;;;;;;2.05;100.00;100652.07;1666292;84;25934;-75
2022/01/27 06:26:43;;;;;;;57.48;25.20;;;;;;;2.03;100.00;100657.46;1643843;85;25876;-76
2022/01/27 06:29:09;;;;;;;51.92;22.25;;;;;;;2.07;100.00;100655.41;1651045;85;25906;-76
2022/01/27 06:31:35;;;;;;;56.20;25.00;;;;;;;2.06;100.00;100644.00;1657584;85;26483;-75
2022/01/27 06:34:02;;;;;;;47.62;22.62;;;;;;;2.08;100.00;100645.19;1653859;85;27461;-75
2022/01/27 06:36:29;;;;;;;62.83;25.90;;;;;;;2.07;100.00;100636.45;1658221;85;25755;-75
2022/01/27 06:38:55;;;;;;;53.75;23.70;;;;;;;2.07;100.00;100637.77;1657566;85;26161;-76
2022/01/27 06:41:21;;;;;;;62.45;24.43;;;;;;;2.05;100.00;100635.70;1655159;85;25904;-75
2022/01/27 06:43:47;;;;;;;59.55;25.65;;;;;;;2.07;100.00;100641.73;1656595;85;26565;-76
2022/01/27 06:46:14;;;;;;;56.70;23.70;;;;;;;2.09;100.00;100643.75;1659328;84;28233;-75
2022/01/27 06:48:40;;;;;;;54.73;22.25;;;;;;;2.10;100.00;100636.16;1670185;84;25906;-75
2022/01/27 06:51:06;;;;;;;60.85;25.72;;;;;;;2.10;100.00;100630.03;1669896;84;25858;-76
2022/01/27 06:53:32;;;;;;;62.45;27.67;;;;;;;2.09;100.00;100641.11;1670260;85;26587;-75
2022/01/27 06:55:59;;;;;;;61.45;26.93;;;;;;;2.10;100.00;100638.80;1670436;85;25824;-75
2022/01/27 06:58:25;;;;;;;66.15;27.02;;;;;;;2.10;100.00;100631.36;1670721;85;28291;-76
2022/01/27 07:00:51;;;;;;;59.55;25.35;;;;;;;2.09;100.00;100633.66;1670368;84;26070;-75
2022/01/27 07:03:18;;;;;;;59.42;25.72;;;;;;;2.10;100.00;100631.36;1670568;85;25850;-76
2022/01/27 07:05:44;;;;;;;61.08;27.50;;;;;;;2.11;100.00;100625.96;1670384;85;26533;-75
2022/01/27 07:08:10;;;;;;;71.33;28.77;;;;;;;2.10;100.00;100621.62;1670655;85;26537;-75
2022/01/27 07:10:36;;;;;;;68.55;29.18;;;;;;;2.10;100.00;100612.38;1670470;84;27446;-76
2022/01/27 07:13:03;;;;;;;68.10;27.93;;;;;;;2.13;100.00;100620.53;1669964;84;25887;-76
2022/01/27 07:15:30;;;;;;;71.85;29.50;;;;;;;2.11;100.00;100618.03;1669760;85;25795;-76
2022/01/27 07:17:56;;;;;;;80.83;33.92;;;;;;;2.11;100.00;100618.52;1670338;84;26650;-76
2022/01/27 07:20:23;;;;;;;75.67;32.80;;;;;;;2.12;100.00;100623.66;1670213;84;25811;-75
2022/01/27 07:22:49;;;;;;;60.78;26.82;;;;;;;2.14;100.00;100611.62;1670377;85;28724;-76
2022/01/27 07:25:15;;;;;;;60.95;24.87;;;;;;;2.14;100.00;100616.91;1670289;85;26084;-76
2022/01/27 07:27:41;;;;;;;76.85;31.10;;;;;;;2.14;100.00;100623.52;1670638;85;25779;-76
2022/01/27 07:30:08;;;;;;;79.10;32.08;;;;;;;2.12;100.00;100621.48;1670385;84;26561;-76
2022/01/27 07:32:34;;;;;;;71.15;28.50;;;;;;;2.13;100.00;100612.13;1670498;85;25743;-75
2022/01/27 07:35:01;;;;;;;76.17;31.95;;;;;;;2.12;100.00;100595.91;1645111;85;27614;-76
2022/01/27 07:37:27;;;;;;;61.98;24.98;;;;;;;2.12;100.00;100591.11;1670501;85;25790;-76
2022/01/27 07:39:53;;;;;;;74.53;31.45;;;;;;;2.10;100.00;100600.97;1670242;84;25822;-76
2022/01/27 07:42:19;;;;;;;62.48;26.20;;;;;;;2.11;100.00;100602.66;1670418;85;25999;-76
2022/01/27 07:44:47;;;;;;;65.92;25.55;;;;;;;2.12;100.00;100593.27;1670427;85;25857;-76
2022/01/27 07:47:13;;;;;;;45.52;21.15;;;;;;;2.14;100.00;100597.09;1670318;84;27441;-75
2022/01/27 07:49:39;;;;;;;56.48;24.47;;;;;;;2.15;100.00;100596.98;1669886;84;26498;-76
2022/01/27 07:52:06;;;;;;;62.33;28.60;;;;;;;2.16;100.00;100592.54;1670472;85;25970;-77
2022/01/27 07:54:32;;;;;;;53.63;24.57;;;;;;;2.16;100.00;100589.39;1670494;85;25830;-76
2022/01/27 07:56:58;;;;;;;61.20;27.35;;;;;;;2.18;100.00;100583.48;1670784;85;25858;-76
2022/01/27 07:59:24;;;;;;;58.13;26.25;;;;;;;2.20;100.00;100582.05;1670298;84;27050;-76
2022/01/27 08:01:50;;;;;;;64.15;30.25;;;;;;;2.20;100.00;100586.02;1670364;85;26509;-76
2022/01/27 08:04:17;;;;;;;70.08;32.10;;;;;;;2.21;100.00;100583.23;1670740;83;25864;-78
2022/01/27 08:06:43;;;;;;;74.17;34.40;;;;;;;2.23;100.00;100577.33;1670626;85;26583;-78
2022/01/27 08:09:09;;;;;;;73.28;33.50;;;;;;;2.24;100.00;100565.80;1670292;85;25730;-77
2022/01/27 08:11:37;;;;;;;58.42;27.48;;;;;;;2.27;100.00;100558.06;1670355;84;28290;-77
2022/01/27 08:14:04;;;;;;;52.73;24.55;;;;;;;2.28;100.00;100548.70;1669888;85;26510;-78
2022/01/27 08:16:30;;;;;;;48.90;23.22;;;;;;;2.30;100.00;100537.98;1670270;84;25874;-78
2022/01/27 08:18:56;;;;;;;43.80;19.23;;;;;;;2.30;100.00;100504.47;1670337;85;26410;-78
2022/01/27 08:21:22;;;;;;;47.65;23.80;;;;;;;2.31;100.00;100514.05;1670366;84;25943;-77
2022/01/27 08:23:51;;;;;;;51.08;24.65;;;;;;;2.33;100.00;100517.39;1670333;85;27509;-78
2022/01/27 08:26:29;;;;;;;50.15;22.73;;;;;;;2.35;100.00;100528.66;1670328;85;25305;-78
2022/01/27 08:28:53;;;;;;;55.23;25.48;;;;;;;2.39;100.00;100536.33;1668537;84;25807;-78
2022/01/27 08:31:14;;;;;;;52.30;25.75;;;;;;;2.40;99.92;100541.47;1669357;84;26821;-78
2022/01/27 08:33:42;;;;;;;51.60;23.52;;;;;;;2.41;99.58;100545.80;1644949;85;54922;-78
2022/01/27 08:36:09;;;;;;;44.93;23.32;;;;;;;2.43;99.59;100539.05;1670429;84;27449;-77
2022/01/27 08:38:37;;;;;;;51.33;23.38;;;;;;;2.43;99.35;100533.77;1670386;85;26153;-78
2022/01/27 08:41:04;;;;;;;39.00;19.10;;;;;;;2.41;99.29;100514.08;1670207;84;26236;-77
2022/01/27 08:43:30;;;;;;;48.23;22.48;;;;;;;2.42;99.30;100517.06;1670453;85;26565;-77
2022/01/27 08:45:58;;;;;;;54.55;26.73;;;;;;;2.42;99.31;100529.47;1670290;85;25830;-77
2022/01/27 08:48:27;;;;;;;62.70;33.73;;;;;;;2.41;99.33;100523.33;1670515;85;27539;-78
2022/01/27 08:50:59;;;;;;;51.33;24.63;;;;;;;2.43;99.47;100524.52;1669684;84;26526;-78
2022/01/27 08:53:22;;;;;;;57.10;27.95;;;;;;;2.44;99.38;100519.08;1669272;85;25299;-78
2022/01/27 08:55:48;;;;;;;51.92;26.07;;;;;;;2.45;99.41;100519.92;1670345;85;26143;-78
2022/01/27 08:58:15;;;;;;;52.05;25.27;;;;;;;2.47;99.32;100514.01;1670515;85;25743;-77
2022/01/27 09:00:41;;;;;;;56.10;24.20;;;;;;;2.46;99.22;100513.17;1670114;84;28270;-76
2022/01/27 09:03:07;;;;;;;53.40;26.75;;;;;;;2.47;99.31;100510.88;1670735;85;26509;-74
2022/01/27 09:05:33;;;;;;;77.62;32.45;;;;;;;2.48;99.22;100514.38;1670347;85;25763;-75
2022/01/27 09:08:01;;;;;;;104.92;46.40;;;;;;;2.48;99.34;100499.84;1670675;85;26449;-75
2022/01/27 09:10:31;;;;;;;85.40;38.95;;;;;;;2.49;99.15;100485.15;1670466;84;25867;-75
2022/01/27 09:12:56;;;;;;;56.50;28.95;;;;;;;2.50;99.20;100489.47;1670021;85;27551;-74
2022/01/27 09:15:25;;;;;;;57.85;26.48;;;;;;;2.50;99.13;100484.67;1670159;85;25943;-75
2022/01/27 09:17:53;;;;;;;52.38;24.52;;;;;;;2.52;99.30;100489.33;1670701;85;25890;-75
2022/01/27 09:20:20;;;;;;;48.35;22.25;;;;;;;2.54;99.08;100485.58;1670517;84;26444;-75
2022/01/27 09:22:51;;;;;;;45.80;23.70;;;;;;;2.55;99.09;100480.63;1670267;85;25909;-75
2022/01/27 09:25:25;;;;;;;;;;;;;;;2.56;98.82;100470.41;1672788;85;27449;-75
2022/01/27 09:27:52;;;;;;;54.00;25.45;;;;;;;2.57;98.65;100464.61;1669652;85;25850;-78
2022/01/27 09:30:19;;;;;;;43.15;21.48;;;;;;;2.57;99.00;100460.16;1670337;84;25855;-76
2022/01/27 09:32:48;;;;;;;54.60;24.72;;;;;;;2.58;98.85;100460.53;1670520;84;25874;-75
2022/01/27 09:35:16;;;;;;;49.90;23.67;;;;;;;2.60;98.75;100466.98;1670369;84;25314;-75
2022/01/27 09:37:44;;;;;;;48.40;21.93;;;;;;;2.61;98.76;100462.06;1670601;85;27452;-75
2022/01/27 09:40:12;;;;;;;50.92;24.12;;;;;;;2.63;98.64;100462.25;1670130;84;25847;-75
2022/01/27 09:42:48;;;;;;;40.60;20.68;;;;;;;2.65;98.39;100454.20;1670103;85;25720;-75
2022/01/27 09:45:12;;;;;;;47.70;22.17;;;;;;;2.64;98.14;100448.06;1669761;85;26798;-75
2022/01/27 09:47:42;;;;;;;63.52;31.68;;;;;;;2.65;98.12;100438.33;1670666;85;25835;-75
2022/01/27 09:50:25;;;;;;;54.18;27.30;;;;;;;2.66;98.09;100429.41;1669870;84;28425;-74
2022/01/27 09:52:38;;;;;;;149.23;62.45;;;;;;;2.67;98.06;100425.33;1667833;85;25741;-76
2022/01/27 09:55:08;;;;;;;70.50;35.43;;;;;;;2.68;98.02;100426.13;1670291;84;25772;-75
2022/01/27 09:57:35;;;;;;;47.13;24.72;;;;;;;2.71;97.87;100421.89;1670621;85;26349;-76
2022/01/27 10:00:05;;;;;;;44.38;24.57;;;;;;;2.73;98.05;100410.20;1670305;84;25870;-75
2022/01/27 10:02:34;;;;;;;45.60;26.75;;;;;;;2.76;98.01;100421.00;1645615;85;28807;-76
2022/01/27 10:05:02;;;;;;;41.33;25.32;;;;;;;2.81;98.00;100410.81;1669602;85;25959;-75
2022/01/27 10:07:39;;;;;;;42.85;22.35;;;;;;;2.83;97.58;100418.11;1669898;84;25817;-75
2022/01/27 10:10:17;;;;;;;38.95;20.52;;;;;;;2.86;97.48;100417.36;1669988;84;25820;-75
2022/01/27 10:12:51;;;;;;;39.80;22.00;;;;;;;2.87;97.26;100413.72;1670164;84;26209;-75
2022/01/27 10:15:22;;;;;;;34.48;18.55;;;;;;;2.89;97.23;100409.60;1670394;85;27521;-75
2022/01/27 10:18:12;;;;;;;38.17;19.85;;;;;;;2.90;96.89;100402.87;1670264;85;25952;-75
2022/01/27 10:20:44;;;;;;;43.10;20.82;;;;;;;2.91;96.37;100401.88;1670016;84;25832;-74
2022/01/27 10:23:30;;;;;;;43.28;21.60;;;;;;;2.91;96.61;100403.68;1670567;85;26530;-77
2022/01/27 10:26:13;;;;;;;37.23;20.80;;;;;;;2.91;96.49;100397.91;1670632;85;25855;-77
2022/01/27 10:31:19;;;;;;;35.60;18.80;;;;;;;2.91;96.22;100383.36;1670238;84;26006;-77
2022/01/27 10:34:05;;;;;;;39.03;20.02;;;;;;;2.90;96.22;100373.77;1670200;85;25827;-78
2022/01/27 10:36:41;;;;;;;62.73;34.27;;;;;;;2.91;96.14;100370.61;1670212;84;26428;-77
2022/01/27 10:39:19;;;;;;;34.65;20.60;;;;;;;2.90;96.30;100372.45;1670451;85;25324;-76
2022/01/27 10:42:00;;;;;;;31.75;18.73;;;;;;;2.93;96.28;100362.08;1670141;85;28102;-76
2022/01/27 10:44:38;;;;;;;35.68;18.95;;;;;;;2.92;96.19;100355.94;1670452;85;25886;-75
2022/01/27 10:47:15;;;;;;;31.37;16.80;;;;;;;2.94;96.14;100348.69;1670661;85;25884;-75
2022/01/27 10:49:49;;;;;;;31.82;16.12;;;;;;;2.93;95.96;100349.66;1669689;84;25899;-75
2022/01/27 10:55:11;;;;;;;33.70;19.05;;;;;;;2.95;96.11;100331.83;1634332;85;27486;-76
2022/01/27 10:57:38;;;;;;;31.20;18.42;;;;;;;2.95;96.15;100331.83;1670887;84;33252;-76
2022/01/27 11:00:14;;;;;;;33.65;19.10;;;;;;;2.95;95.95;100324.41;1670215;84;26556;-76
2022/01/27 11:02:57;;;;;;;33.00;18.87;;;;;;;2.95;96.19;100315.95;1670445;85;26428;-76
2022/01/27 11:05:29;;;;;;;30.62;17.40;;;;;;;2.95;95.81;100325.21;1669945;85;25862;-76
2022/01/27 11:07:58;;;;;;;30.05;17.85;;;;;;;2.96;96.13;100311.50;1670464;85;27472;-76
2022/01/27 11:10:26;;;;;;;36.70;20.12;;;;;;;2.96;95.98;100310.18;1670176;84;25833;-76
2022/01/27 11:12:54;;;;;;;32.55;17.62;;;;;;;2.97;96.35;100306.57;1670469;85;25840;-76
2022/01/27 11:15:21;;;;;;;29.32;16.93;;;;;;;3.00;96.42;100300.97;1670778;85;25920;-76
2022/01/27 11:17:54;;;;;;;30.05;16.97;;;;;;;3.01;96.37;100300.00;1670478;85;25773;-76
2022/01/27 11:23:01;;;;;;;26.27;15.18;;;;;;;3.08;96.35;100291.33;1670194;84;25774;-75
2022/01/27 11:27:50;;;;;;;24.15;14.98;;;;;;;3.09;96.07;100277.61;1670422;85;25783;-76
2022/01/27 11:30:37;;;;;;;26.97;14.45;;;;;;;3.08;95.81;100280.73;1670406;84;26469;-76
2022/01/27 11:33:13;;;;;;;25.08;14.50;;;;;;;3.08;95.32;100279.41;1670193;84;28327;-75
2022/01/27 11:35:40;;;;;;;22.10;13.22;;;;;;;3.07;95.77;100274.28;1670281;85;25973;-76
2022/01/27 11:38:08;;;;;;;22.67;13.32;;;;;;;3.06;95.49;100276.08;1670371;85;25866;-75
2022/01/27 11:40:42;;;;;;;19.62;12.58;;;;;;;3.05;95.59;100273.11;1670490;84;25891;-76
2022/01/27 11:43:15;;;;;;;32.05;16.52;;;;;;;3.02;95.04;100274.72;1670194;85;25956;-75
2022/01/27 11:45:45;;;;;;;25.05;13.00;;;;;;;3.00;95.51;100271.38;1670385;85;28293;-76
2022/01/27 11:48:22;;;;;;;40.03;21.73;;;;;;;3.00;94.74;100259.96;1643176;87;26159;-76
2022/01/27 11:50:55;;;;;;;20.80;12.70;;;;;;;2.98;94.98;100254.83;1642468;85;25887;-76
2022/01/27 11:53:40;;;;;;;23.07;12.45;;;;;;;2.97;94.92;100258.95;1643249;87;25854;-76
2022/01/27 11:56:27;;;;;;;19.65;12.00;;;;;;;2.94;95.18;100252.62;1643147;87;26535;-75
2022/01/27 11:59:01;;;;;;;17.35;10.20;;;;;;;2.93;95.42;100254.42;1643180;86;27456;-75